sensor_id;sensor_type;location;lat;lon;timestamp;P1;durP1;ratioP1;P2;durP2;ratioP2
21099;SDS011;10708;50.824;4.408;2022-12-07T00:04:22;484.43;;;125.47;;
21099;SDS011;10708;50.824;4.408;2022-12-07T00:09:26;494.77;;;125.10;;
21099;SDS011;10708;50.824;4.408;2022-12-07T00:14:28;484.20;;;125.90;;
21099;SDS011;10708;50.824;4.408;2022-12-07T00:19:30;481.67;;;125.10;;
21099;SDS011;10708;50.824;4.408;2022-12-07T00:24:34;474.97;;;123.60;;
21099;SDS011;10708;50.824;4.408;2022-12-07T00:29:36;479.43;;;125.00;;
21099;SDS011;10708;50.824;4.408;2022-12-07T00:34:39;473.13;;;123.07;;
21099;SDS011;10708;50.824;4.408;2022-12-07T00:39:46;460.17;;;121.00;;
21099;SDS011;10708;50.824;4.408;2022-12-07T00:44:49;461.57;;;124.53;;
21099;SDS011;10708;50.824;4.408;2022-12-07T00:49:52;464.27;;;124.37;;
21099;SDS011;10708;50.824;4.408;2022-12-07T00:54:55;449.77;;;124.37;;
21099;SDS011;10708;50.824;4.408;2022-12-07T00:59:57;468.73;;;122.40;;
21099;SDS011;10708;50.824;4.408;2022-12-07T01:05:01;447.50;;;122.57;;
21099;SDS011;10708;50.824;4.408;2022-12-07T01:10:06;446.30;;;122.83;;
21099;SDS011;10708;50.824;4.408;2022-12-07T01:15:09;444.70;;;121.00;;
21099;SDS011;10708;50.824;4.408;2022-12-07T01:20:12;445.60;;;122.03;;
21099;SDS011;10708;50.824;4.408;2022-12-07T01:25:18;449.60;;;122.97;;
21099;SDS011;10708;50.824;4.408;2022-12-07T01:30:20;331.63;;;92.37;;
21099;SDS011;10708;50.824;4.408;2022-12-07T01:35:22;437.43;;;117.80;;
21099;SDS011;10708;50.824;4.408;2022-12-07T01:40:26;443.93;;;123.27;;
21099;SDS011;10708;50.824;4.408;2022-12-07T01:45:36;441.73;;;121.40;;
21099;SDS011;10708;50.824;4.408;2022-12-07T01:50:40;437.40;;;119.63;;
21099;SDS011;10708;50.824;4.408;2022-12-07T01:55:47;435.70;;;120.63;;
21099;SDS011;10708;50.824;4.408;2022-12-07T02:00:53;433.37;;;121.90;;
21099;SDS011;10708;50.824;4.408;2022-12-07T02:05:56;441.27;;;122.97;;
21099;SDS011;10708;50.824;4.408;2022-12-07T02:11:01;430.93;;;118.47;;
21099;SDS011;10708;50.824;4.408;2022-12-07T02:16:10;439.57;;;121.70;;
21099;SDS011;10708;50.824;4.408;2022-12-07T02:21:23;433.97;;;120.13;;
21099;SDS011;10708;50.824;4.408;2022-12-07T02:32:19;436.03;;;123.30;;
21099;SDS011;10708;50.824;4.408;2022-12-07T02:37:29;318.97;;;90.17;;
21099;SDS011;10708;50.824;4.408;2022-12-07T02:42:39;437.40;;;120.43;;
21099;SDS011;10708;50.824;4.408;2022-12-07T02:47:50;438.33;;;121.30;;
21099;SDS011;10708;50.824;4.408;2022-12-07T02:52:57;434.87;;;121.13;;
21099;SDS011;10708;50.824;4.408;2022-12-07T02:58:13;444.73;;;125.17;;
21099;SDS011;10708;50.824;4.408;2022-12-07T03:03:27;437.07;;;121.27;;
21099;SDS011;10708;50.824;4.408;2022-12-07T03:08:31;430.03;;;117.33;;
21099;SDS011;10708;50.824;4.408;2022-12-07T03:13:46;436.03;;;119.50;;
21099;SDS011;10708;50.824;4.408;2022-12-07T03:18:55;431.67;;;119.97;;
21099;SDS011;10708;50.824;4.408;2022-12-07T03:24:02;431.03;;;119.57;;
21099;SDS011;10708;50.824;4.408;2022-12-07T03:29:09;423.23;;;115.67;;
21099;SDS011;10708;50.824;4.408;2022-12-07T03:34:19;428.27;;;119.50;;
21099;SDS011;10708;50.824;4.408;2022-12-07T03:39:28;428.23;;;119.50;;
21099;SDS011;10708;50.824;4.408;2022-12-07T03:44:35;430.60;;;120.67;;
21099;SDS011;10708;50.824;4.408;2022-12-07T03:49:41;417.80;;;118.20;;
21099;SDS011;10708;50.824;4.408;2022-12-07T03:54:49;422.70;;;118.17;;
21099;SDS011;10708;50.824;4.408;2022-12-07T03:59:58;409.93;;;115.07;;
21099;SDS011;10708;50.824;4.408;2022-12-07T04:05:02;419.20;;;117.43;;
21099;SDS011;10708;50.824;4.408;2022-12-07T04:10:05;414.60;;;117.87;;
21099;SDS011;10708;50.824;4.408;2022-12-07T04:15:09;413.50;;;118.27;;
21099;SDS011;10708;50.824;4.408;2022-12-07T04:20:14;410.50;;;116.80;;
21099;SDS011;10708;50.824;4.408;2022-12-07T04:25:17;432.30;;;117.87;;
21099;SDS011;10708;50.824;4.408;2022-12-07T04:30:19;399.23;;;114.67;;
21099;SDS011;10708;50.824;4.408;2022-12-07T04:35:23;413.30;;;117.53;;
21099;SDS011;10708;50.824;4.408;2022-12-07T04:40:26;412.77;;;117.60;;
21099;SDS011;10708;50.824;4.408;2022-12-07T04:45:28;420.73;;;120.23;;
21099;SDS011;10708;50.824;4.408;2022-12-07T04:50:32;417.47;;;118.83;;
21099;SDS011;10708;50.824;4.408;2022-12-07T04:55:34;414.33;;;120.27;;
21099;SDS011;10708;50.824;4.408;2022-12-07T05:00:37;413.20;;;118.10;;
21099;SDS011;10708;50.824;4.408;2022-12-07T05:05:41;414.87;;;120.13;;
21099;SDS011;10708;50.824;4.408;2022-12-07T05:10:44;422.00;;;119.60;;
21099;SDS011;10708;50.824;4.408;2022-12-07T05:15:46;424.00;;;121.67;;
21099;SDS011;10708;50.824;4.408;2022-12-07T05:20:50;413.10;;;116.87;;
21099;SDS011;10708;50.824;4.408;2022-12-07T05:25:52;418.43;;;119.17;;
21099;SDS011;10708;50.824;4.408;2022-12-07T05:30:55;425.20;;;117.93;;
21099;SDS011;10708;50.824;4.408;2022-12-07T05:36:02;410.40;;;113.60;;
21099;SDS011;10708;50.824;4.408;2022-12-07T05:41:24;413.93;;;119.33;;
21099;SDS011;10708;50.824;4.408;2022-12-07T05:46:44;452.00;;;114.57;;
21099;SDS011;10708;50.824;4.408;2022-12-07T05:52:17;427.97;;;118.53;;
21099;SDS011;10708;50.824;4.408;2022-12-07T05:57:20;439.30;;;120.33;;
21099;SDS011;10708;50.824;4.408;2022-12-07T06:02:25;443.20;;;119.77;;
21099;SDS011;10708;50.824;4.408;2022-12-07T06:07:29;432.80;;;117.73;;
21099;SDS011;10708;50.824;4.408;2022-12-07T06:12:31;429.03;;;117.30;;
21099;SDS011;10708;50.824;4.408;2022-12-07T06:17:41;438.63;;;119.23;;
21099;SDS011;10708;50.824;4.408;2022-12-07T06:22:45;436.87;;;122.17;;
21099;SDS011;10708;50.824;4.408;2022-12-07T06:27:48;442.93;;;121.33;;
21099;SDS011;10708;50.824;4.408;2022-12-07T06:32:50;456.13;;;121.90;;
21099;SDS011;10708;50.824;4.408;2022-12-07T06:37:54;466.50;;;122.73;;
21099;SDS011;10708;50.824;4.408;2022-12-07T06:42:57;469.67;;;126.27;;
21099;SDS011;10708;50.824;4.408;2022-12-07T06:47:59;470.47;;;124.57;;
21099;SDS011;10708;50.824;4.408;2022-12-07T06:53:03;483.53;;;125.37;;
21099;SDS011;10708;50.824;4.408;2022-12-07T06:58:05;457.67;;;121.83;;
21099;SDS011;10708;50.824;4.408;2022-12-07T07:03:11;461.37;;;119.00;;
21099;SDS011;10708;50.824;4.408;2022-12-07T07:08:19;460.50;;;123.40;;
21099;SDS011;10708;50.824;4.408;2022-12-07T07:13:21;457.57;;;121.50;;
21099;SDS011;10708;50.824;4.408;2022-12-07T07:18:24;477.90;;;126.57;;
21099;SDS011;10708;50.824;4.408;2022-12-07T07:23:27;452.30;;;120.67;;
21099;SDS011;10708;50.824;4.408;2022-12-07T07:28:31;453.57;;;122.27;;
21099;SDS011;10708;50.824;4.408;2022-12-07T07:33:33;451.43;;;121.67;;
21099;SDS011;10708;50.824;4.408;2022-12-07T07:38:37;450.47;;;124.00;;
21099;SDS011;10708;50.824;4.408;2022-12-07T07:43:40;437.20;;;119.03;;
21099;SDS011;10708;50.824;4.408;2022-12-07T07:48:42;440.67;;;120.27;;
21099;SDS011;10708;50.824;4.408;2022-12-07T07:53:48;446.00;;;117.17;;
21099;SDS011;10708;50.824;4.408;2022-12-07T07:58:52;450.50;;;122.57;;
21099;SDS011;10708;50.824;4.408;2022-12-07T08:03:55;458.50;;;121.83;;
21099;SDS011;10708;50.824;4.408;2022-12-07T08:08:59;459.13;;;122.57;;
21099;SDS011;10708;50.824;4.408;2022-12-07T08:14:01;435.03;;;118.67;;
21099;SDS011;10708;50.824;4.408;2022-12-07T08:19:04;471.80;;;121.13;;
21099;SDS011;10708;50.824;4.408;2022-12-07T08:24:08;466.63;;;122.63;;
21099;SDS011;10708;50.824;4.408;2022-12-07T08:29:11;461.00;;;123.23;;
21099;SDS011;10708;50.824;4.408;2022-12-07T08:34:13;454.83;;;122.73;;
21099;SDS011;10708;50.824;4.408;2022-12-07T08:39:17;456.33;;;123.70;;
21099;SDS011;10708;50.824;4.408;2022-12-07T08:44:19;447.33;;;122.40;;
21099;SDS011;10708;50.824;4.408;2022-12-07T08:49:22;453.63;;;123.70;;
21099;SDS011;10708;50.824;4.408;2022-12-07T08:54:29;436.37;;;118.70;;
21099;SDS011;10708;50.824;4.408;2022-12-07T08:59:32;437.23;;;119.40;;
21099;SDS011;10708;50.824;4.408;2022-12-07T09:04:36;437.40;;;119.33;;
21099;SDS011;10708;50.824;4.408;2022-12-07T09:09:40;454.87;;;121.07;;
21099;SDS011;10708;50.824;4.408;2022-12-07T09:14:43;474.47;;;123.90;;
21099;SDS011;10708;50.824;4.408;2022-12-07T09:19:46;453.40;;;121.30;;
21099;SDS011;10708;50.824;4.408;2022-12-07T09:24:50;452.70;;;121.60;;
21099;SDS011;10708;50.824;4.408;2022-12-07T09:29:52;448.50;;;120.20;;
21099;SDS011;10708;50.824;4.408;2022-12-07T09:34:56;449.20;;;119.00;;
21099;SDS011;10708;50.824;4.408;2022-12-07T09:40:00;464.70;;;124.47;;
21099;SDS011;10708;50.824;4.408;2022-12-07T09:45:04;463.17;;;124.57;;
21099;SDS011;10708;50.824;4.408;2022-12-07T09:50:11;593.07;;;146.93;;
21099;SDS011;10708;50.824;4.408;2022-12-07T09:55:19;481.60;;;125.83;;
21099;SDS011;10708;50.824;4.408;2022-12-07T10:00:25;490.77;;;122.87;;
21099;SDS011;10708;50.824;4.408;2022-12-07T10:05:30;484.97;;;121.80;;
21099;SDS011;10708;50.824;4.408;2022-12-07T10:10:35;497.20;;;127.57;;
21099;SDS011;10708;50.824;4.408;2022-12-07T10:15:41;493.60;;;125.73;;
21099;SDS011;10708;50.824;4.408;2022-12-07T10:20:45;494.63;;;125.17;;
21099;SDS011;10708;50.824;4.408;2022-12-07T10:25:50;501.13;;;125.60;;
21099;SDS011;10708;50.824;4.408;2022-12-07T10:30:56;488.10;;;125.17;;
21099;SDS011;10708;50.824;4.408;2022-12-07T10:36:15;496.87;;;124.63;;
21099;SDS011;10708;50.824;4.408;2022-12-07T10:41:22;498.83;;;122.97;;
21099;SDS011;10708;50.824;4.408;2022-12-07T10:51:55;468.23;;;123.33;;
21099;SDS011;10708;50.824;4.408;2022-12-07T10:57:12;472.37;;;123.17;;
21099;SDS011;10708;50.824;4.408;2022-12-07T11:02:25;477.13;;;123.20;;
21099;SDS011;10708;50.824;4.408;2022-12-07T11:07:38;483.60;;;123.40;;
21099;SDS011;10708;50.824;4.408;2022-12-07T11:12:52;490.30;;;123.40;;
21099;SDS011;10708;50.824;4.408;2022-12-07T11:18:06;491.87;;;126.03;;
21099;SDS011;10708;50.824;4.408;2022-12-07T11:23:16;507.50;;;125.40;;
21099;SDS011;10708;50.824;4.408;2022-12-07T11:28:32;494.40;;;125.00;;
21099;SDS011;10708;50.824;4.408;2022-12-07T11:33:53;480.83;;;120.70;;
21099;SDS011;10708;50.824;4.408;2022-12-07T11:39:02;467.87;;;119.50;;
21099;SDS011;10708;50.824;4.408;2022-12-07T11:44:18;476.53;;;121.53;;
21099;SDS011;10708;50.824;4.408;2022-12-07T11:49:35;469.53;;;120.87;;
21099;SDS011;10708;50.824;4.408;2022-12-07T11:54:44;456.10;;;120.80;;
21099;SDS011;10708;50.824;4.408;2022-12-07T11:59:51;460.40;;;120.00;;
21099;SDS011;10708;50.824;4.408;2022-12-07T12:05:01;454.60;;;117.70;;
21099;SDS011;10708;50.824;4.408;2022-12-07T12:10:16;460.20;;;120.00;;
21099;SDS011;10708;50.824;4.408;2022-12-07T12:15:26;475.13;;;121.57;;
21099;SDS011;10708;50.824;4.408;2022-12-07T12:20:41;466.50;;;120.43;;
21099;SDS011;10708;50.824;4.408;2022-12-07T12:25:49;467.13;;;120.43;;
21099;SDS011;10708;50.824;4.408;2022-12-07T12:31:06;465.93;;;120.40;;
21099;SDS011;10708;50.824;4.408;2022-12-07T12:36:22;458.50;;;117.00;;
21099;SDS011;10708;50.824;4.408;2022-12-07T12:53:01;552.77;;;140.90;;
21099;SDS011;10708;50.824;4.408;2022-12-07T12:58:36;589.03;;;129.53;;
21099;SDS011;10708;50.824;4.408;2022-12-07T13:03:53;612.17;;;130.10;;
21099;SDS011;10708;50.824;4.408;2022-12-07T13:08:58;597.17;;;128.53;;
21099;SDS011;10708;50.824;4.408;2022-12-07T13:19:55;556.57;;;123.43;;
21099;SDS011;10708;50.824;4.408;2022-12-07T13:25:05;568.70;;;127.13;;
21099;SDS011;10708;50.824;4.408;2022-12-07T13:30:14;563.07;;;126.87;;
21099;SDS011;10708;50.824;4.408;2022-12-07T13:35:31;572.63;;;129.13;;
21099;SDS011;10708;50.824;4.408;2022-12-07T13:40:39;564.17;;;126.73;;
21099;SDS011;10708;50.824;4.408;2022-12-07T13:45:43;573.17;;;129.40;;
21099;SDS011;10708;50.824;4.408;2022-12-07T13:50:54;571.03;;;127.00;;
21099;SDS011;10708;50.824;4.408;2022-12-07T13:56:00;568.60;;;127.97;;
21099;SDS011;10708;50.824;4.408;2022-12-07T14:01:03;583.07;;;131.97;;
21099;SDS011;10708;50.824;4.408;2022-12-07T14:06:20;580.70;;;129.83;;
21099;SDS011;10708;50.824;4.408;2022-12-07T14:11:35;572.27;;;127.27;;
21099;SDS011;10708;50.824;4.408;2022-12-07T14:16:42;570.17;;;126.70;;
21099;SDS011;10708;50.824;4.408;2022-12-07T14:21:47;576.13;;;129.10;;
21099;SDS011;10708;50.824;4.408;2022-12-07T14:26:50;565.03;;;129.07;;
21099;SDS011;10708;50.824;4.408;2022-12-07T14:31:53;567.07;;;124.93;;
21099;SDS011;10708;50.824;4.408;2022-12-07T14:37:02;561.27;;;122.57;;
21099;SDS011;10708;50.824;4.408;2022-12-07T14:42:07;556.57;;;120.30;;
21099;SDS011;10708;50.824;4.408;2022-12-07T14:47:15;558.77;;;122.60;;
21099;SDS011;10708;50.824;4.408;2022-12-07T14:57:36;559.23;;;122.97;;
21099;SDS011;10708;50.824;4.408;2022-12-07T15:02:39;561.63;;;123.50;;
21099;SDS011;10708;50.824;4.408;2022-12-07T15:07:47;564.40;;;128.50;;
21099;SDS011;10708;50.824;4.408;2022-12-07T15:12:54;548.27;;;124.83;;
21099;SDS011;10708;50.824;4.408;2022-12-07T15:18:17;547.90;;;123.67;;
21099;SDS011;10708;50.824;4.408;2022-12-07T15:23:21;544.63;;;122.70;;
21099;SDS011;10708;50.824;4.408;2022-12-07T15:28:25;549.27;;;124.20;;
21099;SDS011;10708;50.824;4.408;2022-12-07T15:33:27;542.60;;;122.73;;
21099;SDS011;10708;50.824;4.408;2022-12-07T15:38:30;541.83;;;121.67;;
21099;SDS011;10708;50.824;4.408;2022-12-07T15:43:35;536.97;;;125.23;;
21099;SDS011;10708;50.824;4.408;2022-12-07T15:48:59;540.43;;;123.80;;
21099;SDS011;10708;50.824;4.408;2022-12-07T15:54:03;535.53;;;124.93;;
21099;SDS011;10708;50.824;4.408;2022-12-07T15:59:19;544.73;;;127.07;;
21099;SDS011;10708;50.824;4.408;2022-12-07T16:04:21;545.77;;;126.47;;
21099;SDS011;10708;50.824;4.408;2022-12-07T16:09:24;545.53;;;124.37;;
21099;SDS011;10708;50.824;4.408;2022-12-07T16:14:28;549.07;;;125.60;;
21099;SDS011;10708;50.824;4.408;2022-12-07T16:19:33;554.27;;;128.13;;
21099;SDS011;10708;50.824;4.408;2022-12-07T16:24:36;557.37;;;127.20;;
21099;SDS011;10708;50.824;4.408;2022-12-07T16:29:40;551.63;;;126.67;;
21099;SDS011;10708;50.824;4.408;2022-12-07T16:34:45;563.37;;;126.40;;
21099;SDS011;10708;50.824;4.408;2022-12-07T16:39:48;547.80;;;126.23;;
21099;SDS011;10708;50.824;4.408;2022-12-07T16:44:52;549.50;;;127.67;;
21099;SDS011;10708;50.824;4.408;2022-12-07T16:49:55;545.37;;;125.90;;
21099;SDS011;10708;50.824;4.408;2022-12-07T16:54:57;527.90;;;118.57;;
21099;SDS011;10708;50.824;4.408;2022-12-07T17:05:40;534.83;;;122.73;;
21099;SDS011;10708;50.824;4.408;2022-12-07T17:10:43;548.13;;;127.83;;
21099;SDS011;10708;50.824;4.408;2022-12-07T17:15:55;546.37;;;126.23;;
21099;SDS011;10708;50.824;4.408;2022-12-07T17:21:01;552.17;;;125.70;;
21099;SDS011;10708;50.824;4.408;2022-12-07T17:26:09;538.30;;;124.37;;
21099;SDS011;10708;50.824;4.408;2022-12-07T17:31:18;537.20;;;124.00;;
21099;SDS011;10708;50.824;4.408;2022-12-07T17:36:26;535.07;;;122.57;;
21099;SDS011;10708;50.824;4.408;2022-12-07T17:41:29;547.37;;;126.63;;
21099;SDS011;10708;50.824;4.408;2022-12-07T17:46:51;539.03;;;127.03;;
21099;SDS011;10708;50.824;4.408;2022-12-07T17:51:57;535.23;;;124.37;;
21099;SDS011;10708;50.824;4.408;2022-12-07T17:57:17;548.53;;;130.20;;
21099;SDS011;10708;50.824;4.408;2022-12-07T18:02:21;544.63;;;129.10;;
21099;SDS011;10708;50.824;4.408;2022-12-07T18:07:23;547.10;;;129.70;;
21099;SDS011;10708;50.824;4.408;2022-12-07T18:12:26;541.80;;;130.40;;
21099;SDS011;10708;50.824;4.408;2022-12-07T18:17:29;542.43;;;130.93;;
21099;SDS011;10708;50.824;4.408;2022-12-07T18:22:32;539.23;;;129.77;;
21099;SDS011;10708;50.824;4.408;2022-12-07T18:27:34;536.20;;;127.67;;
21099;SDS011;10708;50.824;4.408;2022-12-07T18:32:38;539.53;;;129.97;;
21099;SDS011;10708;50.824;4.408;2022-12-07T18:37:40;539.87;;;129.93;;
21099;SDS011;10708;50.824;4.408;2022-12-07T18:42:43;537.83;;;126.37;;
21099;SDS011;10708;50.824;4.408;2022-12-07T18:47:46;536.77;;;127.97;;
21099;SDS011;10708;50.824;4.408;2022-12-07T18:52:49;535.70;;;127.07;;
21099;SDS011;10708;50.824;4.408;2022-12-07T18:57:51;658.60;;;157.77;;
21099;SDS011;10708;50.824;4.408;2022-12-07T19:02:55;566.67;;;130.87;;
21099;SDS011;10708;50.824;4.408;2022-12-07T19:07:58;543.53;;;127.60;;
21099;SDS011;10708;50.824;4.408;2022-12-07T19:13:02;540.07;;;126.63;;
21099;SDS011;10708;50.824;4.408;2022-12-07T19:18:06;542.30;;;130.57;;
21099;SDS011;10708;50.824;4.408;2022-12-07T19:23:09;540.60;;;128.97;;
21099;SDS011;10708;50.824;4.408;2022-12-07T19:28:12;535.50;;;126.97;;
21099;SDS011;10708;50.824;4.408;2022-12-07T19:33:16;535.00;;;125.53;;
21099;SDS011;10708;50.824;4.408;2022-12-07T19:38:19;585.13;;;135.70;;
21099;SDS011;10708;50.824;4.408;2022-12-07T19:43:22;554.37;;;131.00;;
21099;SDS011;10708;50.824;4.408;2022-12-07T19:48:27;548.27;;;129.63;;
21099;SDS011;10708;50.824;4.408;2022-12-07T19:53:30;544.90;;;130.80;;
21099;SDS011;10708;50.824;4.408;2022-12-07T19:58:36;538.87;;;127.03;;
21099;SDS011;10708;50.824;4.408;2022-12-07T20:03:40;539.33;;;126.80;;
21099;SDS011;10708;50.824;4.408;2022-12-07T20:08:43;543.03;;;128.33;;
21099;SDS011;10708;50.824;4.408;2022-12-07T20:13:46;560.37;;;141.60;;
21099;SDS011;10708;50.824;4.408;2022-12-07T20:18:53;525.07;;;117.60;;
21099;SDS011;10708;50.824;4.408;2022-12-07T20:29:23;530.33;;;120.93;;
21099;SDS011;10708;50.824;4.408;2022-12-07T20:34:44;530.80;;;120.43;;
21099;SDS011;10708;50.824;4.408;2022-12-07T20:40:04;546.57;;;122.03;;
21099;SDS011;10708;50.824;4.408;2022-12-07T20:45:15;519.07;;;118.27;;
21099;SDS011;10708;50.824;4.408;2022-12-07T20:50:48;520.40;;;121.53;;
21099;SDS011;10708;50.824;4.408;2022-12-07T20:55:56;527.97;;;127.33;;
21099;SDS011;10708;50.824;4.408;2022-12-07T21:01:07;521.07;;;123.73;;
21099;SDS011;10708;50.824;4.408;2022-12-07T21:06:12;515.63;;;118.63;;
21099;SDS011;10708;50.824;4.408;2022-12-07T21:11:17;509.40;;;118.87;;
21099;SDS011;10708;50.824;4.408;2022-12-07T21:16:22;514.27;;;120.60;;
21099;SDS011;10708;50.824;4.408;2022-12-07T21:21:30;518.10;;;123.23;;
21099;SDS011;10708;50.824;4.408;2022-12-07T21:26:34;516.80;;;123.67;;
21099;SDS011;10708;50.824;4.408;2022-12-07T21:31:37;514.73;;;122.50;;
21099;SDS011;10708;50.824;4.408;2022-12-07T21:36:41;512.90;;;121.40;;
21099;SDS011;10708;50.824;4.408;2022-12-07T21:41:43;510.17;;;119.17;;
21099;SDS011;10708;50.824;4.408;2022-12-07T21:46:45;511.53;;;118.00;;
21099;SDS011;10708;50.824;4.408;2022-12-07T21:52:05;515.40;;;122.33;;
21099;SDS011;10708;50.824;4.408;2022-12-07T21:57:13;509.87;;;118.03;;
21099;SDS011;10708;50.824;4.408;2022-12-07T22:13:51;521.93;;;128.47;;
21099;SDS011;10708;50.824;4.408;2022-12-07T22:19:11;519.63;;;126.17;;
21099;SDS011;10708;50.824;4.408;2022-12-07T22:24:14;514.53;;;123.10;;
21099;SDS011;10708;50.824;4.408;2022-12-07T22:29:18;519.37;;;126.77;;
21099;SDS011;10708;50.824;4.408;2022-12-07T22:34:20;518.10;;;124.03;;
21099;SDS011;10708;50.824;4.408;2022-12-07T22:39:23;520.37;;;127.33;;
21099;SDS011;10708;50.824;4.408;2022-12-07T22:44:27;521.93;;;127.23;;
21099;SDS011;10708;50.824;4.408;2022-12-07T22:49:29;523.03;;;129.70;;
21099;SDS011;10708;50.824;4.408;2022-12-07T22:54:32;527.37;;;131.40;;
21099;SDS011;10708;50.824;4.408;2022-12-07T22:59:36;519.97;;;126.97;;
21099;SDS011;10708;50.824;4.408;2022-12-07T23:04:38;521.67;;;126.80;;
21099;SDS011;10708;50.824;4.408;2022-12-07T23:09:41;522.40;;;129.37;;
21099;SDS011;10708;50.824;4.408;2022-12-07T23:14:44;537.23;;;132.67;;
21099;SDS011;10708;50.824;4.408;2022-12-07T23:19:47;528.63;;;131.07;;
21099;SDS011;10708;50.824;4.408;2022-12-07T23:24:50;532.67;;;134.03;;
21099;SDS011;10708;50.824;4.408;2022-12-07T23:29:53;520.53;;;128.13;;
21099;SDS011;10708;50.824;4.408;2022-12-07T23:34:56;516.00;;;124.10;;
21099;SDS011;10708;50.824;4.408;2022-12-07T23:39:58;534.37;;;129.07;;
21099;SDS011;10708;50.824;4.408;2022-12-07T23:45:02;515.83;;;126.20;;
21099;SDS011;10708;50.824;4.408;2022-12-07T23:50:06;518.93;;;128.50;;
21099;SDS011;10708;50.824;4.408;2022-12-07T23:55:09;512.00;;;123.60;;
